University AP, Davis, CA, CA

7:52 AM PST on December 06, 2019 (GMT -0800)
University AP, Davis, CA

Weather History for KEDU - October, 2019

Change the Weather History Date:

Sunday, October 20, 2019

  Actual Average (WUND) Record (WUND)
Temperature  
Mean Temperature 66 °F -  
Max Temperature 77 °F - - (-1)
Min Temperature 55 °F - - (-1)
Cooling Degree Days 1    
Growing Degree Days 16 (Base 50)    
Moisture  
Dew Point 40 °F    
Average Humidity 45    
Maximum Humidity 77    
Minimum Humidity 20    
Precipitation  
Precipitation 0.00 in - - ()
Sea Level Pressure  
Sea Level Pressure 30.09 in    
Wind  
Wind Speed 6 mph ()    
Max Wind Speed 15 mph    
Max Gust Speed 18 mph    
Visibility 10.0 miles    
Events      
Averages and records for this station are not official NWS values.
T = Trace of Precipitation, MM = Missing Value Source: Averaged Metar Reports

Daily Weather History Graph

Daily Weather History Graph

Search for Another Location

Airport or City:

Astronomy

Oct. 20, 2019 Rise Set
Actual Time 7:21 AM PDT 6:22 PM PDT
Civil Twilight 6:54 AM PDT 6:49 PM PDT
Nautical Twilight 6:23 AM PDT 7:19 PM PDT
Astronomical Twilight 5:52 AM PDT 7:50 PM PDT
Moon 11:39 PM PDT (10/20) 1:50 PM PDT (10/20)
Length of Visible Light 11h 54m
Length of Day
11h 01m
Waning Gibbous, 58% of the Moon is Illuminated
Oct 20
Waning Gibbous
Oct 21
Last Quarter
Oct 27
New
Nov 4
First Quarter
Nov 12
Full

Hourly Weather History & Observations

Time (PDT) Temp. Dew Point Humidity Pressure Visibility Wind Dir Wind Speed Gust Speed Precip Events Conditions
12:15 AM 57.2 °F 50.0 °F 77% 30.06 in 10.0 mi North 3.5 mph - N/A   Clear
12:35 AM 57.2 °F 48.2 °F 72% 30.06 in 10.0 mi North 3.5 mph - N/A   Clear
12:55 AM 59.0 °F 50.0 °F 72% 30.06 in 10.0 mi North 5.8 mph - N/A   Clear
1:15 AM 59.0 °F 50.0 °F 72% 30.06 in 10.0 mi NNW 5.8 mph - N/A   Clear
1:55 AM 59.0 °F 48.2 °F 67% 30.07 in 10.0 mi NNW 5.8 mph - N/A   Clear
2:15 AM 59.0 °F 48.2 °F 67% 30.08 in 10.0 mi NNW 6.9 mph - N/A   Clear
2:35 AM 59.0 °F 48.2 °F 67% 30.08 in 10.0 mi NNW 6.9 mph - N/A   Clear
2:55 AM 57.2 °F 48.2 °F 72% 30.09 in 10.0 mi NNW 8.1 mph - N/A   Clear
3:10 AM 57.2 °F 48.2 °F 72% 30.09 in 10.0 mi NNW 5.8 mph - N/A   Clear
3:35 AM 57.2 °F 48.2 °F 72% 30.09 in 10.0 mi NNW 8.1 mph - N/A   Clear
3:55 AM 57.2 °F 48.2 °F 72% 30.09 in 10.0 mi NNW 9.2 mph - N/A   Clear
4:15 AM 55.4 °F 48.2 °F 77% 30.09 in 10.0 mi NNW 5.8 mph - N/A   Clear
4:35 AM 57.2 °F 46.4 °F 67% 30.08 in 10.0 mi NNW 6.9 mph - N/A   Clear
4:55 AM 57.2 °F 44.6 °F 63% 30.08 in 10.0 mi North 9.2 mph - N/A   Clear
5:15 AM 55.4 °F 42.8 °F 63% 30.09 in 10.0 mi North 5.8 mph - N/A   Clear
5:55 AM 55.4 °F 41.0 °F 58% 30.09 in 10.0 mi North 6.9 mph - N/A   Clear
6:10 AM 55.4 °F 41.0 °F 58% 30.10 in 10.0 mi North 6.9 mph - N/A   Clear
6:35 AM 55.4 °F 41.0 °F 58% 30.10 in 10.0 mi NNW 5.8 mph - N/A   Clear
6:55 AM 55.4 °F 41.0 °F 58% 30.11 in 10.0 mi NNW 8.1 mph - N/A   Clear
7:15 AM 55.4 °F 41.0 °F 58% 30.11 in 10.0 mi NNW 5.8 mph - N/A   Clear
7:35 AM 55.4 °F 41.0 °F 58% 30.11 in 10.0 mi North 5.8 mph - N/A   Clear
7:55 AM 55.4 °F 39.2 °F 54% 30.11 in 10.0 mi North 8.1 mph - N/A   Clear
8:15 AM 57.2 °F 39.2 °F 51% 30.11 in 10.0 mi NNW 8.1 mph - N/A   Clear
8:35 AM 57.2 °F 39.2 °F 51% 30.12 in 10.0 mi NNW 8.1 mph - N/A   Clear
8:55 AM 59.0 °F 37.4 °F 45% 30.13 in 10.0 mi NW 9.2 mph - N/A   Clear
9:15 AM 60.8 °F 37.4 °F 42% 30.14 in 10.0 mi NNW 9.2 mph - N/A   Clear
9:30 AM 62.6 °F 37.4 °F 39% 30.14 in 10.0 mi NNW 9.2 mph - N/A   Clear
9:55 AM 64.4 °F 35.6 °F 34% 30.14 in 10.0 mi NNW 11.5 mph 18.4 mph N/A   Clear
10:15 AM 66.2 °F 35.6 °F 32% 30.15 in 10.0 mi NNW 15.0 mph - N/A   Clear
10:35 AM 66.2 °F 35.6 °F 32% 30.15 in 10.0 mi NNW 11.5 mph - N/A   Clear
10:55 AM 68.0 °F 32.0 °F 26% 30.15 in 10.0 mi NNW 9.2 mph 16.1 mph N/A   Clear
11:15 AM 68.0 °F 32.0 °F 26% 30.14 in 10.0 mi NNW 12.7 mph - N/A   Clear
11:35 AM 69.8 °F 32.0 °F 25% 30.14 in 10.0 mi NNW 11.5 mph - N/A   Clear
11:55 AM 71.6 °F 32.0 °F 23% 30.14 in 10.0 mi North 11.5 mph - N/A   Clear
12:15 PM 71.6 °F 32.0 °F 23% 30.14 in 10.0 mi NNW 9.2 mph - N/A   Clear
12:35 PM 71.6 °F 32.0 °F 23% 30.13 in 10.0 mi NW 8.1 mph - N/A   Clear
12:55 PM 73.4 °F 30.2 °F 20% 30.12 in 10.0 mi NNW 8.1 mph - N/A   Clear
1:15 PM 73.4 °F 32.0 °F 22% 30.11 in 10.0 mi North 9.2 mph - N/A   Clear
1:35 PM 73.4 °F 32.0 °F 22% 30.10 in 10.0 mi NNW 6.9 mph - N/A   Clear
1:55 PM 75.2 °F 33.8 °F 22% 30.09 in 10.0 mi NNW 8.1 mph - N/A   Clear
2:15 PM 75.2 °F 33.8 °F 22% 30.09 in 10.0 mi WNW 8.1 mph - N/A   Clear
2:35 PM 75.2 °F 35.6 °F 24% 30.08 in 10.0 mi NNW 9.2 mph - N/A   Clear
2:55 PM 75.2 °F 35.6 °F 24% 30.07 in 10.0 mi NW 3.5 mph - N/A   Clear
3:10 PM 77.0 °F 35.6 °F 22% 30.07 in 10.0 mi NW 3.5 mph - N/A   Clear
3:35 PM 77.0 °F 37.4 °F 24% 30.06 in 10.0 mi North 6.9 mph - N/A   Clear
3:55 PM 77.0 °F 37.4 °F 24% 30.06 in 10.0 mi North 6.9 mph - N/A   Clear
4:10 PM 77.0 °F 37.4 °F 24% 30.06 in 10.0 mi North 5.8 mph - N/A   Clear
4:55 PM 77.0 °F 39.2 °F 26% 30.06 in 10.0 mi NNW 4.6 mph - N/A   Clear
5:15 PM 77.0 °F 41.0 °F 28% 30.06 in 10.0 mi NNE 4.6 mph - N/A   Clear
5:35 PM 77.0 °F 41.0 °F 28% 30.05 in 10.0 mi North 6.9 mph - N/A   Clear
5:55 PM 75.2 °F 41.0 °F 29% 30.05 in 10.0 mi NNE 3.5 mph - N/A   Clear
6:15 PM 73.4 °F 39.2 °F 29% 30.05 in 10.0 mi NE 5.8 mph - N/A   Clear
6:30 PM 73.4 °F 39.2 °F 29% 30.05 in 10.0 mi Calm Calm - N/A   Clear
6:55 PM 68.0 °F 41.0 °F 37% 30.05 in 10.0 mi Calm Calm - N/A   Clear
7:15 PM 68.0 °F 41.0 °F 37% 30.06 in 10.0 mi Calm Calm - N/A   Clear
7:35 PM 64.4 °F 42.8 °F 45% 30.07 in 10.0 mi Calm Calm - N/A   Clear
7:50 PM 62.6 °F 42.8 °F 48% 30.07 in 10.0 mi Calm Calm - N/A   Clear
8:10 PM 64.4 °F 41.0 °F 42% 30.08 in 10.0 mi West 4.6 mph - N/A   Clear
8:35 PM 64.4 °F 41.0 °F 42% 30.08 in 10.0 mi West 3.5 mph - N/A   Clear
8:55 PM 64.4 °F 41.0 °F 42% 30.09 in 10.0 mi WNW 3.5 mph - N/A   Clear
9:15 PM 62.6 °F 41.0 °F 45% 30.09 in 10.0 mi West 3.5 mph - N/A   Clear
9:35 PM 62.6 °F 41.0 °F 45% 30.10 in 10.0 mi Calm Calm - N/A   Clear
9:50 PM 62.6 °F 41.0 °F 45% 30.10 in 10.0 mi West 4.6 mph - N/A   Clear
10:15 PM 60.8 °F 41.0 °F 48% 30.11 in 10.0 mi Calm Calm - N/A   Clear
10:35 PM 57.2 °F 42.8 °F 59% 30.12 in 10.0 mi Calm Calm - N/A   Clear
10:55 PM 59.0 °F 41.0 °F 51% 30.12 in 10.0 mi Calm Calm - N/A   Clear
11:15 PM 57.2 °F 41.0 °F 55% 30.11 in 10.0 mi Calm Calm - N/A   Clear
11:55 PM 55.4 °F 41.0 °F 58% 30.11 in 10.0 mi North - - N/A   Clear